Time;durP1;ratioP1;P1;durP2;ratioP2;P2;SDS_P1;SDS_P2;PMS_P1;PMS_P2;Temp;Humidity;BMP_temperature;BMP_pressure;BME280_temperature;BME280_humidity;BME280_pressure;Samples;Min_cycle;Max_cycle;Signal;HPM_P1;HPM_P2
2020/12/23 03:47:43;;;;;;;2.33;2.00;;;9.00;92.10;;;;;;5237728;23;94080;-81
2020/12/23 03:50:08;;;;;;;2.80;2.60;;;9.10;92.20;;;;;;4921922;28;92915;-78
2020/12/23 03:52:34;;;;;;;2.45;2.35;;;9.10;92.30;;;;;;4913436;28;92102;-80
2020/12/23 03:55:00;;;;;;;2.47;2.28;;;9.10;92.50;;;;;;4920428;28;92013;-79
2020/12/23 03:57:25;;;;;;;2.75;2.35;;;9.00;92.70;;;;;;4923939;28;92290;-79
2020/12/23 03:59:51;;;;;;;2.60;2.50;;;9.00;93.00;;;;;;4921061;28;91751;-78
2020/12/23 04:02:17;;;;;;;2.40;2.30;;;9.00;93.00;;;;;;4921032;28;91269;-82
2020/12/23 04:04:42;;;;;;;2.60;2.40;;;9.10;93.00;;;;;;4922462;28;92209;-79
2020/12/23 04:07:08;;;;;;;2.30;2.10;;;9.00;92.80;;;;;;4922498;28;92822;-79
2020/12/23 04:09:33;;;;;;;2.75;2.55;;;9.00;92.90;;;;;;4924865;28;91638;-79
2020/12/23 04:11:59;;;;;;;2.17;2.08;;;9.10;93.50;;;;;;4928044;28;92181;-78
2020/12/23 04:14:25;;;;;;;2.25;2.15;;;9.10;93.40;;;;;;4929506;28;92941;-79
2020/12/23 04:16:50;;;;;;;2.25;2.15;;;9.20;93.20;;;;;;4930750;28;92915;-79
2020/12/23 04:19:16;;;;;;;2.13;2.03;;;9.40;92.00;;;;;;4927840;28;92018;-77
2020/12/23 04:21:42;;;;;;;1.27;1.17;;;9.80;90.80;;;;;;4924992;28;92012;-78
2020/12/23 04:24:07;;;;;;;1.98;1.88;;;10.10;87.60;;;;;;4926073;28;92769;-78
2020/12/23 04:26:33;;;;;;;0.98;0.90;;;10.40;84.00;;;;;;4911659;28;91981;-79
2020/12/23 04:28:59;;;;;;;1.92;1.70;;;10.80;77.80;;;;;;4916732;28;91456;-78
2020/12/23 04:31:24;;;;;;;1.50;1.50;;;11.00;75.70;;;;;;4927870;28;91230;-80
2020/12/23 04:33:50;;;;;;;1.60;1.60;;;11.20;73.80;;;;;;4927149;28;92068;-80
2020/12/23 04:36:16;;;;;;;1.80;1.70;;;11.30;72.40;;;;;;4913478;28;91965;-79
2020/12/23 04:38:42;;;;;;;1.85;1.75;;;;;;;;;;4908803;28;92894;-80
2020/12/23 04:41:08;;;;;;;1.75;1.75;;;11.40;71.60;;;;;;4921189;28;91843;-80
2020/12/23 04:43:34;;;;;;;1.80;1.70;;;11.30;72.70;;;;;;4926053;28;92156;-81
2020/12/23 04:46:01;;;;;;;0.70;0.70;;;11.20;72.80;;;;;;4916390;28;92301;-80
2020/12/23 04:48:31;;;;;;;2.03;1.92;;;11.10;73.60;;;;;;4907236;28;92010;-80
2020/12/23 04:50:57;;;;;;;1.90;1.80;;;10.90;74.40;;;;;;4918500;28;91904;-80
2020/12/23 04:53:26;;;;;;;1.55;1.55;;;10.70;75.30;;;;;;4926491;28;92155;-80
2020/12/23 04:55:52;;;;;;;2.63;2.53;;;10.60;76.30;;;;;;4924302;28;93138;-79
2020/12/23 04:58:18;;;;;;;0.80;0.80;;;10.60;76.50;;;;;;4927535;28;92306;-80
2020/12/23 05:00:44;;;;;;;2.03;1.92;;;10.50;76.50;;;;;;4919014;28;92018;-80
2020/12/23 05:03:09;;;;;;;1.80;1.80;;;10.70;73.70;;;;;;4910112;28;93184;-80
2020/12/23 05:05:35;;;;;;;0.77;0.65;;;10.80;73.30;;;;;;4920643;28;93219;-79
2020/12/23 05:08:00;;;;;;;1.75;1.65;;;10.80;73.90;;;;;;4920431;28;91680;-80
2020/12/23 05:10:29;;;;;;;2.00;1.85;;;10.80;75.10;;;;;;4924944;28;91490;-79
2020/12/23 05:12:58;;;;;;;0.85;0.85;;;10.70;74.70;;;;;;4927386;28;93372;-80
2020/12/23 05:15:24;;;;;;;1.50;1.50;;;10.60;76.80;;;;;;4927209;28;92259;-80
2020/12/23 05:17:51;;;;;;;0.75;0.75;;;10.50;77.00;;;;;;4925625;28;92010;-81
2020/12/23 05:20:17;;;;;;;1.67;1.67;;;10.50;76.30;;;;;;4927409;28;90814;-78
2020/12/23 05:22:49;;;;;;;1.95;1.85;;;10.50;75.50;;;;;;4927889;28;92394;-79
2020/12/23 05:25:17;;;;;;;2.08;1.98;;;10.60;74.90;;;;;;4925958;28;92108;-78
2020/12/23 05:27:43;;;;;;;2.25;2.15;;;10.60;75.40;;;;;;4927898;28;92460;-79
2020/12/23 05:30:10;;;;;;;1.85;1.75;;;10.60;74.60;;;;;;4927225;28;91883;-78
2020/12/23 05:32:40;;;;;;;2.20;2.10;;;10.60;74.70;;;;;;4926432;28;91588;-81
2020/12/23 05:35:06;;;;;;;3.13;2.83;;;10.80;87.40;;;;;;4926586;28;92400;-80
2020/12/23 05:37:32;;;;;;;3.78;3.25;;;10.70;87.90;;;;;;4926902;28;92014;-80
2020/12/23 05:39:59;;;;;;;3.70;3.40;;;10.70;89.70;;;;;;4916126;28;92083;-80
2020/12/23 05:42:26;;;;;;;3.28;2.72;;;10.70;91.20;;;;;;4926557;28;92293;-79
2020/12/23 05:44:55;;;;;;;3.60;3.00;;;10.60;94.10;;;;;;4927883;28;91326;-81
2020/12/23 05:47:26;;;;;;;4.65;3.85;;;10.50;94.10;;;;;;4927149;28;91901;-78
2020/12/23 05:49:53;;;;;;;4.25;3.92;;;10.40;96.00;;;;;;4925837;28;91543;-77
2020/12/23 05:52:23;;;;;;;4.93;4.03;;;10.30;96.80;;;;;;4927865;28;92906;-79
2020/12/23 05:54:53;;;;;;;3.80;3.50;;;10.30;97.00;;;;;;4928984;28;92857;-79
2020/12/23 05:57:19;;;;;;;3.78;3.47;;;10.20;99.50;;;;;;4930384;28;91723;-78
2020/12/23 05:59:46;;;;;;;3.90;3.28;;;10.00;93.80;;;;;;4927412;28;91483;-78
2020/12/23 06:02:12;;;;;;;2.15;1.50;;;9.90;91.00;;;;;;4926947;28;92299;-80
2020/12/23 06:04:42;;;;;;;2.33;1.40;;;9.80;90.00;;;;;;4927503;28;92287;-80
2020/12/23 06:07:08;;;;;;;2.15;2.05;;;9.70;90.10;;;;;;4920067;28;91991;-80
2020/12/23 06:09:44;;;;;;;2.58;2.38;;;9.70;89.70;;;;;;4922579;28;91688;-79
2020/12/23 06:12:21;;;;;;;4.35;1.50;;;9.60;89.70;;;;;;4914408;28;92473;-79
2020/12/23 06:14:52;;;;;;;2.67;2.40;;;9.50;90.20;;;;;;4918741;28;92311;-79
2020/12/23 06:17:19;;;;;;;2.42;2.33;;;9.50;89.80;;;;;;4925474;28;92920;-78
2020/12/23 06:19:48;;;;;;;3.72;2.97;;;9.50;89.10;;;;;;4905037;28;92185;-77
2020/12/23 06:22:15;;;;;;;3.08;2.45;;;9.60;89.50;;;;;;4921612;28;91999;-76
2020/12/23 06:24:41;;;;;;;2.67;2.20;;;9.50;89.00;;;;;;4917645;28;94131;-76
2020/12/23 06:27:08;;;;;;;3.17;2.78;;;9.40;90.00;;;;;;4911122;28;92135;-80
2020/12/23 06:29:45;;;;;;;2.80;2.60;;;9.40;89.30;;;;;;4917762;28;92165;-79
2020/12/23 06:32:24;;;;;;;2.70;2.50;;;9.40;89.60;;;;;;4917101;28;92726;-80
2020/12/23 06:34:55;;;;;;;2.35;2.08;;;9.50;89.50;;;;;;4919518;28;91367;-78
2020/12/23 06:37:34;;;;;;;2.30;2.13;;;9.50;87.40;;;;;;4922730;28;91810;-80
2020/12/23 06:40:09;;;;;;;2.40;2.30;;;9.50;85.70;;;;;;4917211;28;92015;-80
2020/12/23 06:42:35;;;;;;;2.78;2.58;;;9.50;87.90;;;;;;4918728;28;94187;-79
2020/12/23 06:45:04;;;;;;;3.20;3.00;;;9.50;88.40;;;;;;4921457;28;92147;-81
2020/12/23 06:47:34;;;;;;;3.67;3.10;;;9.50;88.80;;;;;;4900513;28;92089;-77
2020/12/23 06:50:25;;;;;;;4.95;3.85;;;9.40;88.70;;;;;;4922957;28;92082;-81
2020/12/23 06:52:51;;;;;;;3.95;3.60;;;9.30;89.10;;;;;;4907235;28;92019;-80
2020/12/23 06:55:17;;;;;;;4.43;3.22;;;9.20;89.70;;;;;;4913806;28;93459;-81
2020/12/23 06:57:44;;;;;;;4.13;3.22;;;9.20;89.40;;;;;;4920714;28;91933;-83
2020/12/23 07:00:25;;;;;;;4.60;3.20;;;9.20;90.00;;;;;;4921413;28;91422;-80
2020/12/23 07:03:05;;;;;;;4.47;3.13;;;9.20;89.80;;;;;;4921697;28;92759;-79
2020/12/23 07:05:34;;;;;;;3.13;2.73;;;9.20;89.50;;;;;;4920196;28;93126;-80
2020/12/23 07:08:20;;;;;;;3.40;2.97;;;9.20;89.70;;;;;;4920662;28;93912;-79
2020/12/23 07:10:49;;;;;;;3.17;2.92;;;9.30;89.60;;;;;;4919539;28;91718;-77
2020/12/23 07:13:21;;;;;;;2.60;1.85;;;9.40;89.40;;;;;;4916038;28;91966;-82
2020/12/23 07:15:50;;;;;;;3.60;2.95;;;9.40;89.10;;;;;;4922885;28;92248;-81
2020/12/23 07:18:17;;;;;;;3.67;3.38;;;9.40;89.20;;;;;;4914775;28;91640;-80
2020/12/23 07:20:48;;;;;;;3.92;3.08;;;9.40;88.90;;;;;;4917603;28;91985;-81
2020/12/23 07:23:16;;;;;;;5.75;3.53;;;9.30;89.20;;;;;;4913786;28;93189;-81
2020/12/23 07:25:49;;;;;;;3.63;3.33;;;9.30;90.00;;;;;;4921307;28;92307;-77
2020/12/23 07:28:19;;;;;;;3.30;2.17;;;9.30;89.90;;;;;;4922370;28;92034;-79
2020/12/23 07:30:46;;;;;;;3.45;3.15;;;9.40;88.80;;;;;;4920955;28;92060;-80
2020/12/23 07:33:18;;;;;;;3.45;2.95;;;9.50;87.90;;;;;;4923218;28;93142;-80
2020/12/23 07:35:49;;;;;;;3.17;2.83;;;9.50;87.30;;;;;;4923705;28;93152;-78
2020/12/23 07:38:17;;;;;;;3.47;3.17;;;9.60;86.30;;;;;;4917303;28;91902;-80
2020/12/23 07:40:43;;;;;;;6.53;2.70;;;9.60;86.30;;;;;;4916716;28;91995;-81
2020/12/23 07:43:08;;;;;;;3.08;2.80;;;9.70;86.40;;;;;;4915384;28;92376;-81
2020/12/23 07:45:35;;;;;;;4.43;2.72;;;9.70;86.20;;;;;;4910327;28;92274;-80
2020/12/23 07:48:03;;;;;;;3.83;3.10;;;9.70;87.00;;;;;;4920486;28;92047;-82
2020/12/23 07:50:34;;;;;;;17.63;3.45;;;9.70;87.40;;;;;;4922044;28;91218;-80
2020/12/23 07:53:10;;;;;;;4.05;3.35;;;9.60;87.50;;;;;;4917141;28;92088;-81
2020/12/23 07:55:37;;;;;;;4.40;3.58;;;9.60;88.10;;;;;;4921379;28;91834;-81
2020/12/23 07:58:03;;;;;;;4.75;2.80;;;9.60;88.10;;;;;;4914205;28;92900;-81
2020/12/23 08:00:29;;;;;;;3.42;2.92;;;9.70;85.00;;;;;;4921714;28;91865;-80
2020/12/23 08:02:54;;;;;;;2.65;2.45;;;9.80;84.60;;;;;;4921498;28;91741;-80
2020/12/23 08:05:20;;;;;;;2.00;1.80;;;9.90;79.50;;;;;;4919386;28;91633;-81
2020/12/23 08:07:46;;;;;;;2.38;2.17;;;10.20;74.50;;;;;;4926048;28;91843;-82
2020/12/23 08:10:17;;;;;;;2.20;2.10;;;10.40;77.30;;;;;;4914817;28;91997;-81
2020/12/23 08:12:55;;;;;;;2.60;2.40;;;10.50;76.80;;;;;;4925569;28;93359;-80
2020/12/23 08:15:21;;;;;;;3.30;3.00;;;10.60;77.50;;;;;;4914283;28;91176;-80
2020/12/23 08:17:57;;;;;;;3.53;3.00;;;10.60;79.00;;;;;;4925072;28;91574;-81
2020/12/23 08:20:22;;;;;;;6.47;3.05;;;10.50;80.20;;;;;;4915615;28;91391;-81
2020/12/23 08:22:48;;;;;;;4.57;3.00;;;10.50;80.40;;;;;;4920395;28;92791;-81
2020/12/23 08:25:18;;;;;;;4.65;3.03;;;10.50;79.60;;;;;;4916964;28;92095;-80
2020/12/23 08:27:46;;;;;;;2.80;2.55;;;10.50;79.30;;;;;;4914259;28;92653;-81
2020/12/23 08:30:17;;;;;;;3.65;3.33;;;10.40;80.50;;;;;;4918535;28;92541;-81
2020/12/23 08:32:51;;;;;;;4.78;4.00;;;10.50;81.20;;;;;;4907118;28;92928;-81
2020/12/23 08:35:18;;;;;;;3.65;2.10;;;10.40;81.50;;;;;;4917268;28;92094;-80
2020/12/23 08:37:44;;;;;;;4.18;3.65;;;10.40;82.70;;;;;;4923194;28;91980;-79
2020/12/23 08:40:13;;;;;;;3.72;3.30;;;10.30;82.50;;;;;;4923066;28;91288;-79
2020/12/23 08:42:56;;;;;;;3.50;2.95;;;10.20;82.80;;;;;;4922118;28;91962;-77
2020/12/23 08:45:24;;;;;;;3.25;2.95;;;10.10;83.50;;;;;;4918355;28;92645;-81
2020/12/23 08:47:51;;;;;;;2.63;2.42;;;10.10;82.30;;;;;;4923031;28;92656;-81
2020/12/23 08:50:19;;;;;;;2.28;1.52;;;10.20;82.10;;;;;;4920184;28;91943;-80
2020/12/23 08:52:49;;;;;;;3.17;2.88;;;10.30;80.90;;;;;;4925340;28;92088;-81
2020/12/23 08:55:23;;;;;;;2.38;2.28;;;10.30;77.70;;;;;;4915721;28;92407;-81
2020/12/23 08:58:05;;;;;;;1.75;1.00;;;10.30;79.70;;;;;;4920905;28;91992;-81
2020/12/23 09:00:32;;;;;;;2.50;2.30;;;10.40;78.30;;;;;;4920300;28;91808;-79
2020/12/23 09:02:58;;;;;;;4.70;2.40;;;10.50;78.60;;;;;;4918362;28;92313;-82
2020/12/23 09:05:26;;;;;;;1.50;1.25;;;10.60;76.40;;;;;;4927933;28;92233;-82
2020/12/23 09:08:09;;;;;;;1.48;1.10;;;10.70;73.40;;;;;;4929218;28;92057;-82
2020/12/23 09:10:36;;;;;;;2.08;1.98;;;10.80;71.70;;;;;;4928846;28;92046;-81
2020/12/23 09:13:08;;;;;;;2.30;1.88;;;11.00;71.20;;;;;;4927444;28;93195;-82
2020/12/23 09:15:37;;;;;;;2.42;2.22;;;11.10;70.80;;;;;;4927819;28;93017;-81
2020/12/23 09:18:13;;;;;;;2.50;2.40;;;11.20;69.70;;;;;;4918406;28;91886;-80
2020/12/23 09:20:41;;;;;;;2.35;2.25;;;11.30;70.00;;;;;;4919134;28;92043;-81
2020/12/23 09:23:09;;;;;;;2.63;2.42;;;11.30;70.70;;;;;;4922229;28;92048;-82
2020/12/23 09:25:36;;;;;;;2.65;2.45;;;11.20;70.70;;;;;;4927022;28;92852;-81
2020/12/23 09:28:09;;;;;;;1.45;1.17;;;11.20;71.00;;;;;;4927129;28;91546;-81
2020/12/23 09:30:36;;;;;;;2.58;2.38;;;11.30;70.90;;;;;;4922681;28;91369;-81
2020/12/23 09:33:04;;;;;;;2.65;2.45;;;11.30;70.40;;;;;;4925047;28;92416;-81
2020/12/23 09:35:29;;;;;;;2.55;2.35;;;11.40;69.80;;;;;;4921226;28;92148;-81
2020/12/23 09:38:07;;;;;;;2.58;2.38;;;11.50;68.50;;;;;;4912769;28;93062;-79
2020/12/23 09:40:34;;;;;;;1.80;1.70;;;11.70;68.80;;;;;;4922809;28;92033;-80
2020/12/23 09:43:00;;;;;;;2.28;2.08;;;11.80;68.00;;;;;;4924369;28;92799;-80
2020/12/23 09:45:25;;;;;;;2.58;2.38;;;12.00;67.30;;;;;;4907902;28;95572;-78
2020/12/23 09:47:51;;;;;;;2.35;1.08;;;12.30;65.90;;;;;;4920842;28;92107;-80
2020/12/23 09:50:17;;;;;;;2.38;2.17;;;12.50;65.80;;;;;;4924857;28;92096;-77
2020/12/23 09:52:43;;;;;;;2.67;2.50;;;12.70;64.30;;;;;;4922487;28;92044;-81
2020/12/23 09:55:09;;;;;;;2.00;1.90;;;12.80;65.30;;;;;;4925792;28;91866;-79
2020/12/23 09:57:36;;;;;;;2.38;2.28;;;12.90;63.70;;;;;;4923208;28;91815;-80
2020/12/23 10:00:06;;;;;;;2.45;2.33;;;13.00;64.60;;;;;;4907872;28;92025;-81
2020/12/23 10:02:31;;;;;;;3.40;2.37;;;13.10;64.50;;;;;;4923764;28;93513;-81
2020/12/23 10:04:57;;;;;;;2.88;2.15;;;13.10;61.60;;;;;;4924557;28;92069;-82
2020/12/23 10:07:23;;;;;;;2.13;2.03;;;13.10;63.50;;;;;;4911766;28;92126;-82
2020/12/23 10:09:48;;;;;;;2.20;1.98;;;13.50;63.90;;;;;;4925688;28;91913;-82
2020/12/23 10:12:14;;;;;;;3.78;3.38;;;14.00;65.40;;;;;;4927002;28;92087;-83
2020/12/23 10:14:40;;;;;;;4.15;3.85;;;14.70;66.50;;;;;;4906081;28;92737;-83
2020/12/23 10:17:06;;;;;;;4.78;4.20;;;15.30;65.80;;;;;;4922401;28;91956;-84
2020/12/23 10:19:31;;;;;;;3.30;2.15;;;15.70;64.10;;;;;;4917417;28;91256;-84
2020/12/23 10:21:57;;;;;;;4.07;2.95;;;16.40;61.40;;;;;;4923679;28;92175;-84
2020/12/23 10:24:23;;;;;;;5.15;4.10;;;16.90;58.80;;;;;;4914858;28;91950;-83
2020/12/23 10:26:52;;;;;;;3.20;3.00;;;17.20;59.80;;;;;;4927780;28;92879;-83
2020/12/23 10:29:19;;;;;;;3.20;2.90;;;17.40;59.90;;;;;;4927179;28;91511;-84
2020/12/23 10:31:45;;;;;;;3.40;3.15;;;17.60;61.60;;;;;;4924068;28;91976;-84
2020/12/23 10:34:10;;;;;;;3.95;3.22;;;17.90;61.40;;;;;;4924904;28;92376;-84
2020/12/23 10:36:36;;;;;;;3.75;2.70;;;18.00;61.60;;;;;;4927914;28;92014;-84
2020/12/23 10:39:03;;;;;;;2.80;2.60;;;18.20;61.00;;;;;;4928218;28;91774;-84
2020/12/23 10:41:28;;;;;;;3.17;2.92;;;18.30;60.60;;;;;;4928821;28;92900;-84
2020/12/23 10:43:54;;;;;;;3.42;3.03;;;18.10;60.50;;;;;;4910063;28;91364;-84
2020/12/23 10:46:20;;;;;;;3.13;2.83;;;17.70;61.40;;;;;;4927211;28;92103;-84
2020/12/23 10:48:45;;;;;;;6.38;3.90;;;17.60;62.30;;;;;;4925974;28;91910;-84
2020/12/23 10:51:11;;;;;;;4.82;4.43;;;17.60;62.70;;;;;;4925379;28;92869;-84
2020/12/23 10:53:37;;;;;;;5.28;4.47;;;17.70;62.80;;;;;;4923060;28;92122;-84
2020/12/23 10:56:02;;;;;;;4.22;3.28;;;17.80;63.00;;;;;;4924696;28;92255;-84
2020/12/23 10:58:28;;;;;;;3.35;2.97;;;17.80;62.80;;;;;;4920360;28;92192;-84
2020/12/23 11:00:54;;;;;;;3.90;3.20;;;17.70;63.30;;;;;;4926479;28;92730;-83
2020/12/23 11:03:20;;;;;;;3.95;3.65;;;17.60;63.50;;;;;;4922957;28;91984;-84
2020/12/23 11:05:46;;;;;;;2.97;2.78;;;17.50;63.40;;;;;;4931000;28;91538;-83
2020/12/23 11:08:11;;;;;;;2.83;2.60;;;17.00;57.50;;;;;;4933033;28;91190;-84
2020/12/23 11:10:37;;;;;;;3.00;2.80;;;16.60;57.50;;;;;;4921764;28;92213;-84
2020/12/23 11:13:06;;;;;;;3.42;2.70;;;16.30;57.30;;;;;;4928902;28;91843;-84
2020/12/23 11:15:31;;;;;;;3.85;2.78;;;16.00;57.80;;;;;;4933154;28;93113;-83
2020/12/23 11:17:57;;;;;;;3.40;3.03;;;15.80;57.50;;;;;;4933266;28;93111;-83
2020/12/23 11:20:23;;;;;;;3.13;2.42;;;15.60;60.00;;;;;;4918482;28;93837;-83
2020/12/23 11:22:48;;;;;;;2.97;2.78;;;15.30;60.30;;;;;;4935023;28;91243;-82
2020/12/23 11:25:14;;;;;;;3.45;3.15;;;15.10;59.50;;;;;;4934929;28;91949;-83
2020/12/23 11:27:41;;;;;;;3.20;2.90;;;14.80;61.20;;;;;;4927575;28;92191;-83
2020/12/23 11:30:07;;;;;;;2.67;2.47;;;14.70;61.30;;;;;;4923673;28;93482;-83
2020/12/23 11:32:32;;;;;;;3.15;2.92;;;14.60;62.10;;;;;;4923392;28;92324;-82
2020/12/23 11:34:58;;;;;;;4.22;2.90;;;14.40;63.20;;;;;;4918364;28;92034;-84
2020/12/23 11:37:24;;;;;;;3.70;3.35;;;14.20;64.40;;;;;;4922300;28;92015;-84
2020/12/23 11:39:49;;;;;;;3.13;2.83;;;14.20;62.80;;;;;;4919202;28;93067;-82
2020/12/23 11:42:16;;;;;;;3.42;3.10;;;14.40;64.00;;;;;;4913043;28;92316;-82
2020/12/23 11:44:42;;;;;;;4.20;3.10;;;14.60;63.40;;;;;;4914608;28;93050;-83
2020/12/23 11:47:09;;;;;;;4.25;3.15;;;14.60;62.60;;;;;;4907734;28;92256;-82
2020/12/23 11:49:35;;;;;;;3.33;2.97;;;14.60;62.30;;;;;;4904914;28;92318;-82
2020/12/23 11:52:00;;;;;;;3.90;2.92;;;14.60;62.80;;;;;;4905873;28;92251;-84
2020/12/23 11:54:26;;;;;;;2.88;2.67;;;14.30;63.90;;;;;;4902275;28;92055;-84
2020/12/23 11:56:51;;;;;;;3.25;2.10;;;14.20;62.70;;;;;;4911138;28;91359;-83
2020/12/23 11:59:17;;;;;;;3.75;3.45;;;14.10;65.00;;;;;;4912181;28;92067;-84
2020/12/23 12:01:43;;;;;;;2.90;2.63;;;13.90;63.10;;;;;;4916851;28;91569;-83
2020/12/23 12:04:11;;;;;;;3.75;2.83;;;13.60;64.40;;;;;;4907091;28;93524;-85
2020/12/23 12:06:38;;;;;;;4.63;3.30;;;13.50;66.00;;;;;;4912532;28;92040;-84
2020/12/23 12:09:05;;;;;;;4.15;2.85;;;13.50;66.30;;;;;;4903581;28;92235;-84
2020/12/23 12:11:31;;;;;;;4.13;3.05;;;13.40;66.70;;;;;;4899779;28;92418;-84
2020/12/23 12:13:57;;;;;;;4.25;3.20;;;13.30;67.10;;;;;;4906299;28;92046;-84
2020/12/23 12:16:22;;;;;;;3.90;3.60;;;13.30;67.10;;;;;;4903902;28;92188;-84
2020/12/23 12:18:49;;;;;;;3.80;3.05;;;13.30;66.60;;;;;;4904387;28;92685;-82
2020/12/23 12:21:15;;;;;;;3.00;2.75;;;13.10;67.60;;;;;;4897461;28;91774;-82
2020/12/23 12:23:41;;;;;;;3.42;2.67;;;13.00;67.80;;;;;;4902808;28;91852;-83
2020/12/23 12:26:06;;;;;;;3.25;2.97;;;12.90;68.40;;;;;;4904971;28;92027;-83
2020/12/23 12:28:32;;;;;;;5.35;2.97;;;12.90;68.30;;;;;;4886685;28;95974;-83
2020/12/23 12:30:58;;;;;;;3.17;2.50;;;13.00;68.20;;;;;;4910226;28;92143;-82
2020/12/23 12:33:23;;;;;;;3.83;1.77;;;13.20;67.70;;;;;;4908356;28;91945;-83
2020/12/23 12:35:49;;;;;;;2.92;2.70;;;13.40;67.10;;;;;;4916566;28;91807;-81
2020/12/23 12:38:15;;;;;;;3.33;3.03;;;13.60;67.30;;;;;;4910359;28;91917;-82
2020/12/23 12:40:41;;;;;;;4.47;3.65;;;13.70;69.40;;;;;;4906049;28;92256;-84
2020/12/23 12:43:07;;;;;;;4.60;4.05;;;13.90;72.40;;;;;;4910251;28;91734;-81
2020/12/23 12:45:33;;;;;;;5.03;4.63;;;14.00;73.70;;;;;;4912736;28;91312;-82
2020/12/23 12:47:59;;;;;;;4.72;4.32;;;14.10;75.20;;;;;;4911043;28;92197;-84
2020/12/23 12:50:24;;;;;;;5.25;4.28;;;14.10;75.80;;;;;;4909147;28;92484;-84
2020/12/23 12:52:50;;;;;;;4.85;3.88;;;14.10;76.10;;;;;;4917536;28;92971;-83
2020/12/23 12:55:16;;;;;;;6.60;4.63;;;14.10;76.70;;;;;;4909438;28;92013;-83
2020/12/23 12:57:45;;;;;;;6.28;4.90;;;14.10;76.50;;;;;;4899916;28;92111;-83
2020/12/23 13:00:11;;;;;;;6.07;4.35;;;14.10;76.40;;;;;;4910681;28;92558;-83
2020/12/23 13:02:37;;;;;;;5.15;4.47;;;14.00;76.10;;;;;;4909021;28;92775;-83
2020/12/23 13:05:06;;;;;;;5.05;4.50;;;13.90;76.10;;;;;;4894122;28;92143;-83
2020/12/23 13:07:33;;;;;;;5.45;4.35;;;13.90;76.60;;;;;;4906435;28;92912;-83
2020/12/23 13:09:59;;;;;;;4.38;3.97;;;13.80;76.80;;;;;;4893409;28;93409;-83
2020/12/23 13:12:25;;;;;;;5.35;4.85;;;13.70;76.60;;;;;;4900898;28;92088;-83
2020/12/23 13:14:50;;;;;;;5.70;4.65;;;13.60;76.90;;;;;;4908716;28;91916;-82
2020/12/23 13:17:17;;;;;;;5.43;4.03;;;13.60;77.20;;;;;;4899229;28;92892;-82
2020/12/23 13:19:43;;;;;;;5.78;4.30;;;13.50;77.20;;;;;;4909680;28;92942;-81
2020/12/23 13:22:08;;;;;;;5.45;3.97;;;13.50;77.50;;;;;;4911070;28;91855;-82
2020/12/23 13:24:34;;;;;;;5.47;4.60;;;13.40;77.60;;;;;;4910876;28;92191;-82
2020/12/23 13:27:00;;;;;;;4.63;3.70;;;13.40;79.10;;;;;;4909694;28;92772;-83
2020/12/23 13:29:25;;;;;;;4.55;3.63;;;13.10;79.60;;;;;;4902134;28;92182;-83
2020/12/23 13:31:51;;;;;;;5.72;4.43;;;13.20;80.10;;;;;;4908404;28;92162;-83
2020/12/23 13:34:20;;;;;;;4.82;4.32;;;13.20;80.40;;;;;;4905642;28;91323;-81
2020/12/23 13:36:50;;;;;;;6.10;4.45;;;13.30;80.40;;;;;;4896112;28;92159;-80
2020/12/23 13:39:16;;;;;;;7.33;4.87;;;13.30;80.50;;;;;;4903198;28;93110;-83
2020/12/23 13:41:47;;;;;;;5.60;4.53;;;13.30;80.60;;;;;;4909417;28;93021;-83
2020/12/23 13:44:13;;;;;;;;;;;13.30;80.40;;;;;;4910276;28;91964;-83
2020/12/23 13:46:38;;;;;;;9.32;7.00;;;13.20;80.70;;;;;;4907288;28;93132;-83
2020/12/23 13:49:04;;;;;;;9.38;6.22;;;13.10;80.40;;;;;;4927484;28;92266;-83
2020/12/23 13:51:30;;;;;;;6.05;5.28;;;13.10;80.80;;;;;;4927762;28;92336;-83
2020/12/23 13:53:55;;;;;;;5.90;4.57;;;13.00;81.20;;;;;;4928397;28;91853;-84
2020/12/23 13:56:21;;;;;;;5.13;4.60;;;12.90;81.70;;;;;;4919021;28;91982;-83
2020/12/23 13:58:47;;;;;;;5.72;4.43;;;12.80;82.00;;;;;;4927704;28;92472;-83
2020/12/23 14:01:14;;;;;;;6.07;5.00;;;12.70;82.70;;;;;;4927975;28;91902;-83
2020/12/23 14:03:40;;;;;;;5.47;4.65;;;12.70;83.00;;;;;;4928036;28;92197;-83
2020/12/23 14:06:06;;;;;;;6.00;5.15;;;12.70;83.30;;;;;;4925900;28;93213;-83
2020/12/23 14:08:33;;;;;;;6.43;5.47;;;12.60;83.10;;;;;;4927462;28;93858;-83
2020/12/23 14:10:59;;;;;;;6.40;5.15;;;12.60;84.10;;;;;;4926732;28;92074;-83
2020/12/23 14:13:25;;;;;;;5.97;4.88;;;12.50;84.10;;;;;;4927928;28;91938;-83
2020/12/23 14:15:51;;;;;;;5.80;5.30;;;12.40;84.50;;;;;;4930209;28;92179;-84
2020/12/23 14:18:17;;;;;;;5.88;4.78;;;12.40;84.80;;;;;;4927778;28;92329;-83
2020/12/23 14:20:43;;;;;;;8.35;6.30;;;12.40;84.60;;;;;;4925855;28;92081;-83
2020/12/23 14:23:09;;;;;;;8.02;6.65;;;12.40;84.90;;;;;;4925999;28;91310;-82
2020/12/23 14:25:35;;;;;;;15.05;8.50;;;12.40;85.20;;;;;;4925263;28;92079;-83
2020/12/23 14:28:00;;;;;;;9.73;7.07;;;12.30;85.30;;;;;;4925116;28;91713;-80
2020/12/23 14:30:26;;;;;;;7.50;6.50;;;12.30;86.60;;;;;;4925891;28;92990;-81
2020/12/23 14:32:52;;;;;;;6.43;5.82;;;12.20;87.80;;;;;;4927877;28;91888;-82
2020/12/23 14:35:17;;;;;;;6.20;5.60;;;12.00;89.80;;;;;;4924670;28;92114;-82
2020/12/23 14:37:43;;;;;;;7.53;5.45;;;11.80;90.00;;;;;;4928058;28;92848;-82
2020/12/23 14:40:09;;;;;;;8.20;5.97;;;11.80;90.30;;;;;;4916286;28;92048;-81
2020/12/23 14:42:35;;;;;;;5.97;5.38;;;11.80;90.20;;;;;;4926351;28;92580;-82
2020/12/23 14:45:03;;;;;;;6.38;5.78;;;11.80;90.70;;;;;;4915533;28;92092;-82
2020/12/23 14:47:29;;;;;;;10.32;5.97;;;11.70;91.20;;;;;;4921713;28;92046;-82
2020/12/23 14:49:54;;;;;;;7.55;5.47;;;11.70;91.40;;;;;;4923254;28;92066;-79
2020/12/23 14:52:20;;;;;;;6.90;5.03;;;11.40;92.60;;;;;;4924364;28;91894;-78
2020/12/23 14:54:46;;;;;;;9.68;6.20;;;11.30;93.60;;;;;;4922660;28;93237;-81
2020/12/23 14:57:12;;;;;;;9.57;6.40;;;11.30;93.70;;;;;;4921654;28;93384;-80
2020/12/23 14:59:38;;;;;;;9.13;7.68;;;11.20;94.40;;;;;;4917407;28;92137;-80
2020/12/23 15:02:04;;;;;;;10.35;7.22;;;11.10;94.50;;;;;;4929259;28;92609;-80
2020/12/23 15:04:30;;;;;;;9.77;7.32;;;11.20;93.90;;;;;;4918664;28;91522;-81
2020/12/23 15:06:55;;;;;;;10.27;6.85;;;11.30;93.50;;;;;;4924431;28;92050;-81
2020/12/23 15:09:21;;;;;;;12.43;6.88;;;11.40;93.10;;;;;;4920278;28;91950;-79
2020/12/23 15:11:48;;;;;;;11.07;7.72;;;11.40;92.80;;;;;;4918826;28;91332;-79
2020/12/23 15:14:14;;;;;;;11.07;7.40;;;11.40;92.10;;;;;;4920704;28;91658;-81
2020/12/23 15:16:40;;;;;;;11.32;7.00;;;11.40;92.80;;;;;;4923245;28;93471;-81
2020/12/23 15:19:10;;;;;;;9.02;7.13;;;11.40;92.00;;;;;;4920411;28;92929;-81
2020/12/23 15:21:37;;;;;;;10.13;6.30;;;11.40;92.20;;;;;;4924236;28;91884;-81
2020/12/23 15:24:03;;;;;;;8.20;5.90;;;11.30;92.40;;;;;;4935217;28;92628;-81
2020/12/23 15:26:29;;;;;;;9.25;6.30;;;11.40;91.80;;;;;;4923914;28;92895;-82
2020/12/23 15:28:54;;;;;;;7.32;5.50;;;11.40;90.60;;;;;;4922969;28;91951;-81
2020/12/23 15:31:20;;;;;;;8.18;6.78;;;11.40;89.60;;;;;;4923533;28;91920;-82
2020/12/23 15:33:46;;;;;;;9.73;6.85;;;11.30;90.30;;;;;;4921927;28;91721;-82
2020/12/23 15:36:13;;;;;;;7.82;6.07;;;11.20;90.50;;;;;;4922326;28;91254;-82
2020/12/23 15:38:41;;;;;;;11.07;5.80;;;11.20;90.30;;;;;;4923325;28;91558;-82
2020/12/23 15:41:07;;;;;;;9.30;6.53;;;11.30;90.30;;;;;;4923130;28;92037;-82
2020/12/23 15:43:33;;;;;;;9.52;5.93;;;11.30;90.00;;;;;;4919951;28;94190;-82
2020/12/23 15:45:59;;;;;;;10.70;7.38;;;11.20;90.80;;;;;;4912345;28;95284;-81
2020/12/23 15:48:25;;;;;;;9.30;6.95;;;11.20;91.10;;;;;;4920657;28;92004;-83
2020/12/23 15:50:51;;;;;;;12.40;9.45;;;11.30;91.80;;;;;;4926094;28;91494;-82
2020/12/23 15:53:17;;;;;;;12.02;9.98;;;11.30;92.00;;;;;;4920845;28;92373;-83
2020/12/23 15:55:44;;;;;;;12.30;9.32;;;11.30;91.50;;;;;;4921657;28;92323;-78
2020/12/23 15:58:10;;;;;;;15.77;10.73;;;11.30;91.60;;;;;;4922775;28;92129;-86
2020/12/23 16:00:35;;;;;;;14.15;10.23;;;11.10;92.40;;;;;;4922892;28;91316;-84
2020/12/23 16:03:01;;;;;;;14.95;9.68;;;11.10;92.10;;;;;;4918232;28;91681;-84
2020/12/23 16:05:27;;;;;;;13.95;10.20;;;11.00;93.00;;;;;;4922956;28;92420;-83
2020/12/23 16:07:52;;;;;;;14.52;9.95;;;10.90;94.00;;;;;;4921438;28;93280;-83
2020/12/23 16:10:18;;;;;;;13.43;9.30;;;10.80;94.70;;;;;;4926383;28;93002;-82
2020/12/23 16:12:44;;;;;;;12.50;9.60;;;10.80;94.90;;;;;;4922542;28;92199;-83
2020/12/23 16:15:11;;;;;;;15.48;10.00;;;10.70;95.30;;;;;;4909145;28;93130;-81
2020/12/23 16:17:37;;;;;;;13.85;9.88;;;10.70;94.80;;;;;;4928576;28;91919;-81
2020/12/23 16:20:04;;;;;;;8.65;6.90;;;10.70;94.30;;;;;;4929482;28;91417;-82
2020/12/23 16:22:29;;;;;;;9.73;6.75;;;10.70;92.80;;;;;;4930963;28;92738;-83
2020/12/23 16:24:55;;;;;;;10.95;6.25;;;10.70;92.10;;;;;;4927161;28;91678;-80
2020/12/23 16:27:21;;;;;;;8.57;6.15;;;10.70;92.20;;;;;;4930731;28;91817;-83
2020/12/23 16:29:47;;;;;;;13.95;7.32;;;10.70;92.20;;;;;;4932706;28;92033;-84
2020/12/23 16:32:18;;;;;;;10.98;7.18;;;10.70;91.40;;;;;;4930389;28;93789;-81
2020/12/23 16:34:44;;;;;;;;;;;10.70;91.50;;;;;;4918475;28;94324;-78